sensor_id;sensor_type;location;lat;lon;timestamp;pressure;altitude;pressure_sealevel;temperature;humidity
18850;BME280;4989;48.772;9.154;2022-12-20T00:02:24;98547.63;;;6.08;100.00
18850;BME280;4989;48.772;9.154;2022-12-20T00:07:27;98543.94;;;5.79;100.00
18850;BME280;4989;48.772;9.154;2022-12-20T00:12:29;98539.72;;;5.85;100.00
18850;BME280;4989;48.772;9.154;2022-12-20T00:17:31;98541.66;;;5.88;100.00
18850;BME280;4989;48.772;9.154;2022-12-20T00:22:33;98527.31;;;5.70;100.00
18850;BME280;4989;48.772;9.154;2022-12-20T00:27:35;98518.75;;;5.61;100.00
18850;BME280;4989;48.772;9.154;2022-12-20T00:32:37;98515.28;;;6.23;100.00
18850;BME280;4989;48.772;9.154;2022-12-20T00:37:39;98519.28;;;6.54;100.00
18850;BME280;4989;48.772;9.154;2022-12-20T00:42:41;98507.69;;;6.50;100.00
18850;BME280;4989;48.772;9.154;2022-12-20T00:47:45;98513.13;;;6.64;100.00
18850;BME280;4989;48.772;9.154;2022-12-20T00:52:47;98523.88;;;6.50;100.00
18850;BME280;4989;48.772;9.154;2022-12-20T00:57:49;98496.13;;;6.53;100.00
18850;BME280;4989;48.772;9.154;2022-12-20T01:02:51;98507.72;;;6.60;100.00
18850;BME280;4989;48.772;9.154;2022-12-20T01:07:54;98513.13;;;6.71;100.00
18850;BME280;4989;48.772;9.154;2022-12-20T01:12:56;98521.59;;;6.52;100.00
18850;BME280;4989;48.772;9.154;2022-12-20T01:17:58;98541.94;;;6.31;100.00
18850;BME280;4989;48.772;9.154;2022-12-20T01:23:00;98538.56;;;6.56;100.00
18850;BME280;4989;48.772;9.154;2022-12-20T01:28:03;98527.81;;;6.63;100.00
18850;BME280;4989;48.772;9.154;2022-12-20T01:33:05;98534.72;;;6.57;100.00
18850;BME280;4989;48.772;9.154;2022-12-20T01:38:07;98525.50;;;6.72;100.00
18850;BME280;4989;48.772;9.154;2022-12-20T01:43:13;98527.59;;;6.20;100.00
18850;BME280;4989;48.772;9.154;2022-12-20T01:48:21;98518.28;;;6.07;100.00
18850;BME280;4989;48.772;9.154;2022-12-20T01:53:26;98507.50;;;6.07;100.00
18850;BME280;4989;48.772;9.154;2022-12-20T01:58:30;98525.38;;;6.33;100.00
18850;BME280;4989;48.772;9.154;2022-12-20T02:03:33;98484.59;;;6.63;100.00
18850;BME280;4989;48.772;9.154;2022-12-20T02:08:35;98487.59;;;6.40;100.00
18850;BME280;4989;48.772;9.154;2022-12-20T02:35:18;98468.19;;;6.06;100.00
18850;BME280;4989;48.772;9.154;2022-12-20T02:40:28;98466.91;;;5.89;100.00
18850;BME280;4989;48.772;9.154;2022-12-20T02:45:36;98464.09;;;5.64;100.00
18850;BME280;4989;48.772;9.154;2022-12-20T02:50:49;98461.69;;;5.48;100.00
18850;BME280;4989;48.772;9.154;2022-12-20T02:56:21;98446.97;;;5.38;100.00
18850;BME280;4989;48.772;9.154;2022-12-20T03:01:35;98444.75;;;5.51;100.00
18850;BME280;4989;48.772;9.154;2022-12-20T03:07:04;98438.56;;;5.50;100.00
18850;BME280;4989;48.772;9.154;2022-12-20T03:12:10;98427.09;;;5.57;100.00
18850;BME280;4989;48.772;9.154;2022-12-20T03:17:15;98447.91;;;5.64;100.00
18850;BME280;4989;48.772;9.154;2022-12-20T03:22:17;98435.63;;;5.70;100.00
18850;BME280;4989;48.772;9.154;2022-12-20T03:27:19;98410.91;;;5.61;100.00
18850;BME280;4989;48.772;9.154;2022-12-20T03:32:22;98402.16;;;5.78;100.00
18850;BME280;4989;48.772;9.154;2022-12-20T03:37:25;98404.97;;;6.00;100.00
18850;BME280;4989;48.772;9.154;2022-12-20T03:42:27;98402.69;;;6.09;100.00
18850;BME280;4989;48.772;9.154;2022-12-20T03:47:30;98421.22;;;6.17;100.00
18850;BME280;4989;48.772;9.154;2022-12-20T03:52:33;98418.91;;;6.23;100.00
18850;BME280;4989;48.772;9.154;2022-12-20T03:57:39;98412.78;;;6.40;100.00
18850;BME280;4989;48.772;9.154;2022-12-20T04:02:57;98407.78;;;6.50;100.00
18850;BME280;4989;48.772;9.154;2022-12-20T04:08:00;98407.41;;;6.58;100.00
18850;BME280;4989;48.772;9.154;2022-12-20T04:13:03;98385.81;;;6.62;100.00
18850;BME280;4989;48.772;9.154;2022-12-20T04:18:05;98388.50;;;6.65;100.00
18850;BME280;4989;48.772;9.154;2022-12-20T04:23:07;98380.03;;;6.67;100.00
18850;BME280;4989;48.772;9.154;2022-12-20T04:28:10;98376.56;;;6.70;100.00
18850;BME280;4989;48.772;9.154;2022-12-20T04:33:13;98395.84;;;6.61;100.00
18850;BME280;4989;48.772;9.154;2022-12-20T04:38:16;98394.69;;;6.45;100.00
18850;BME280;4989;48.772;9.154;2022-12-20T04:43:22;98367.28;;;6.42;100.00
18850;BME280;4989;48.772;9.154;2022-12-20T04:48:28;98366.50;;;6.46;100.00
18850;BME280;4989;48.772;9.154;2022-12-20T04:53:51;98357.28;;;6.54;100.00
18850;BME280;4989;48.772;9.154;2022-12-20T04:59:04;98359.59;;;6.73;100.00
18850;BME280;4989;48.772;9.154;2022-12-20T05:04:07;98361.91;;;6.96;100.00
18850;BME280;4989;48.772;9.154;2022-12-20T05:09:11;98355.69;;;7.17;100.00
18850;BME280;4989;48.772;9.154;2022-12-20T05:14:13;98347.19;;;7.29;100.00
18850;BME280;4989;48.772;9.154;2022-12-20T05:19:15;98340.56;;;7.38;99.08
18850;BME280;4989;48.772;9.154;2022-12-20T05:24:18;98339.47;;;7.17;99.52
18850;BME280;4989;48.772;9.154;2022-12-20T05:29:51;98328.69;;;7.03;100.00
18850;BME280;4989;48.772;9.154;2022-12-20T05:34:55;98337.16;;;7.05;100.00
18850;BME280;4989;48.772;9.154;2022-12-20T05:39:58;98336.44;;;6.94;100.00
18850;BME280;4989;48.772;9.154;2022-12-20T05:45:00;98326.41;;;6.87;100.00
18850;BME280;4989;48.772;9.154;2022-12-20T05:50:07;98326.00;;;6.88;100.00
18850;BME280;4989;48.772;9.154;2022-12-20T05:55:52;98300.91;;;6.92;100.00
18850;BME280;4989;48.772;9.154;2022-12-20T06:01:02;98302.84;;;6.91;100.00
18850;BME280;4989;48.772;9.154;2022-12-20T06:06:09;98305.50;;;7.02;100.00
18850;BME280;4989;48.772;9.154;2022-12-20T06:11:18;98304.00;;;6.97;100.00
18850;BME280;4989;48.772;9.154;2022-12-20T06:16:34;98316.34;;;7.05;100.00
18850;BME280;4989;48.772;9.154;2022-12-20T06:21:39;98315.56;;;7.12;100.00
18850;BME280;4989;48.772;9.154;2022-12-20T06:26:43;98316.34;;;7.05;100.00
18850;BME280;4989;48.772;9.154;2022-12-20T06:31:47;98309.34;;;7.08;100.00
18850;BME280;4989;48.772;9.154;2022-12-20T06:36:49;98310.47;;;7.28;100.00
18850;BME280;4989;48.772;9.154;2022-12-20T06:41:55;98322.47;;;7.27;99.27
18850;BME280;4989;48.772;9.154;2022-12-20T06:47:00;98320.16;;;7.22;99.85
18850;BME280;4989;48.772;9.154;2022-12-20T06:52:04;98327.13;;;7.16;100.00
18850;BME280;4989;48.772;9.154;2022-12-20T06:57:35;98320.50;;;7.35;99.15
18850;BME280;4989;48.772;9.154;2022-12-20T07:02:38;98312.00;;;7.37;99.02
18850;BME280;4989;48.772;9.154;2022-12-20T07:07:40;98317.69;;;7.67;96.92
18850;BME280;4989;48.772;9.154;2022-12-20T07:12:46;98303.75;;;7.72;96.08
18850;BME280;4989;48.772;9.154;2022-12-20T07:17:49;98312.25;;;7.67;96.33
18850;BME280;4989;48.772;9.154;2022-12-20T07:22:52;98310.72;;;7.66;96.47
18850;BME280;4989;48.772;9.154;2022-12-20T07:27:54;98316.84;;;7.77;96.02
18850;BME280;4989;48.772;9.154;2022-12-20T07:32:57;98312.22;;;7.82;95.26
18850;BME280;4989;48.772;9.154;2022-12-20T07:37:59;98308.25;;;7.97;95.00
18850;BME280;4989;48.772;9.154;2022-12-20T07:43:02;98307.31;;;8.21;94.48
18850;BME280;4989;48.772;9.154;2022-12-20T07:48:04;98302.53;;;8.43;98.15
18850;BME280;4989;48.772;9.154;2022-12-20T07:53:16;98300.91;;;8.53;96.10
18850;BME280;4989;48.772;9.154;2022-12-20T07:58:19;98298.47;;;8.69;95.60
18850;BME280;4989;48.772;9.154;2022-12-20T08:03:28;98308.44;;;8.80;91.75
18850;BME280;4989;48.772;9.154;2022-12-20T08:08:37;98308.47;;;8.76;90.38
18850;BME280;4989;48.772;9.154;2022-12-20T08:13:41;98307.91;;;8.95;90.42
18850;BME280;4989;48.772;9.154;2022-12-20T08:18:48;98303.09;;;8.73;89.36
18850;BME280;4989;48.772;9.154;2022-12-20T08:23:50;98293.44;;;8.71;90.26
18850;BME280;4989;48.772;9.154;2022-12-20T08:28:54;98286.75;;;8.80;90.42
18850;BME280;4989;48.772;9.154;2022-12-20T08:33:56;98271.75;;;9.09;88.70
18850;BME280;4989;48.772;9.154;2022-12-20T08:39:06;98265.38;;;8.89;88.22
18850;BME280;4989;48.772;9.154;2022-12-20T08:44:08;98273.06;;;8.94;88.00
18850;BME280;4989;48.772;9.154;2022-12-20T08:49:11;98267.19;;;9.03;87.99
18850;BME280;4989;48.772;9.154;2022-12-20T08:54:13;98255.53;;;9.06;86.89
18850;BME280;4989;48.772;9.154;2022-12-20T08:59:15;98252.50;;;9.00;87.23
18850;BME280;4989;48.772;9.154;2022-12-20T09:04:18;98262.75;;;8.82;88.52
18850;BME280;4989;48.772;9.154;2022-12-20T09:09:20;98250.13;;;8.64;89.99
18850;BME280;4989;48.772;9.154;2022-12-20T09:14:22;98244.78;;;8.57;90.66
18850;BME280;4989;48.772;9.154;2022-12-20T09:19:24;98242.00;;;8.64;90.41
18850;BME280;4989;48.772;9.154;2022-12-20T09:24:27;98245.09;;;8.66;90.54
18850;BME280;4989;48.772;9.154;2022-12-20T09:29:29;98252.78;;;8.71;89.81
18850;BME280;4989;48.772;9.154;2022-12-20T09:34:36;98252.03;;;8.67;90.25
18850;BME280;4989;48.772;9.154;2022-12-20T09:39:39;98238.88;;;8.69;89.65
18850;BME280;4989;48.772;9.154;2022-12-20T09:44:42;98236.38;;;8.86;89.10
18850;BME280;4989;48.772;9.154;2022-12-20T09:49:48;98231.84;;;8.76;89.49
18850;BME280;4989;48.772;9.154;2022-12-20T10:00:21;98219.78;;;8.80;89.99
18850;BME280;4989;48.772;9.154;2022-12-20T10:05:53;98217.91;;;8.74;90.12
18850;BME280;4989;48.772;9.154;2022-12-20T10:11:52;98195.50;;;8.69;91.05
18850;BME280;4989;48.772;9.154;2022-12-20T10:16:44;98210.00;;;8.90;89.69
18850;BME280;4989;48.772;9.154;2022-12-20T10:27:17;98194.94;;;9.20;87.56
18850;BME280;4989;48.772;9.154;2022-12-20T10:32:23;98196.75;;;9.30;86.69
18850;BME280;4989;48.772;9.154;2022-12-20T10:37:25;98175.38;;;9.35;86.03
18850;BME280;4989;48.772;9.154;2022-12-20T10:42:38;98170.72;;;9.36;85.61
18850;BME280;4989;48.772;9.154;2022-12-20T10:47:45;98183.03;;;9.40;85.35
18850;BME280;4989;48.772;9.154;2022-12-20T11:03:21;98157.34;;;9.49;84.89
18850;BME280;4989;48.772;9.154;2022-12-20T11:08:28;98155.06;;;9.47;85.44
18850;BME280;4989;48.772;9.154;2022-12-20T11:13:45;98147.50;;;9.58;84.80
18850;BME280;4989;48.772;9.154;2022-12-20T11:24:27;98135.59;;;9.52;85.12
18850;BME280;4989;48.772;9.154;2022-12-20T11:34:49;98132.31;;;9.64;83.81
18850;BME280;4989;48.772;9.154;2022-12-20T11:45:36;98115.66;;;9.90;83.37
18850;BME280;4989;48.772;9.154;2022-12-20T11:56:38;98105.88;;;10.16;81.28
18850;BME280;4989;48.772;9.154;2022-12-20T12:01:57;98096.75;;;10.06;81.59
18850;BME280;4989;48.772;9.154;2022-12-20T12:07:10;98108.38;;;10.06;81.04
18850;BME280;4989;48.772;9.154;2022-12-20T12:12:39;98087.97;;;9.75;83.46
18850;BME280;4989;48.772;9.154;2022-12-20T12:23:25;98082.03;;;10.03;82.91
18850;BME280;4989;48.772;9.154;2022-12-20T12:28:31;98081.56;;;10.32;81.59
18850;BME280;4989;48.772;9.154;2022-12-20T12:33:45;98078.56;;;10.46;80.22
18850;BME280;4989;48.772;9.154;2022-12-20T12:44:47;98066.19;;;10.22;81.88
18850;BME280;4989;48.772;9.154;2022-12-20T12:49:54;98060.81;;;10.42;80.73
18850;BME280;4989;48.772;9.154;2022-12-20T12:54:58;98038.63;;;10.43;79.37
18850;BME280;4989;48.772;9.154;2022-12-20T13:00:21;98011.84;;;10.62;78.97
18850;BME280;4989;48.772;9.154;2022-12-20T13:05:33;98034.41;;;10.42;79.45
18850;BME280;4989;48.772;9.154;2022-12-20T13:15:48;98015.66;;;10.28;80.04
18850;BME280;4989;48.772;9.154;2022-12-20T13:21:31;98017.53;;;10.31;79.42
18850;BME280;4989;48.772;9.154;2022-12-20T13:26:50;98016.69;;;10.34;79.16
18850;BME280;4989;48.772;9.154;2022-12-20T13:31:54;98012.69;;;10.19;79.78
18850;BME280;4989;48.772;9.154;2022-12-20T13:37:00;98003.59;;;10.09;80.79
18850;BME280;4989;48.772;9.154;2022-12-20T13:47:31;98010.13;;;10.12;80.67
18850;BME280;4989;48.772;9.154;2022-12-20T13:52:42;97999.91;;;10.39;80.19
18850;BME280;4989;48.772;9.154;2022-12-20T13:57:45;97994.69;;;10.28;79.58
18850;BME280;4989;48.772;9.154;2022-12-20T14:02:54;97989.28;;;10.25;79.22
18850;BME280;4989;48.772;9.154;2022-12-20T14:08:13;97986.25;;;10.23;79.76
18850;BME280;4989;48.772;9.154;2022-12-20T14:13:23;97979.78;;;10.17;80.21
18850;BME280;4989;48.772;9.154;2022-12-20T14:18:25;97979.44;;;10.15;80.05
18850;BME280;4989;48.772;9.154;2022-12-20T14:23:38;97970.91;;;10.13;80.40
18850;BME280;4989;48.772;9.154;2022-12-20T14:28:50;97955.94;;;10.24;80.39
18850;BME280;4989;48.772;9.154;2022-12-20T14:44:32;97962.28;;;10.18;80.29
18850;BME280;4989;48.772;9.154;2022-12-20T14:49:37;97968.56;;;10.15;80.15
18850;BME280;4989;48.772;9.154;2022-12-20T15:00:11;97958.38;;;10.19;79.95
18850;BME280;4989;48.772;9.154;2022-12-20T15:10:35;97949.06;;;10.20;79.78
18850;BME280;4989;48.772;9.154;2022-12-20T15:15:37;97948.22;;;10.23;80.06
18850;BME280;4989;48.772;9.154;2022-12-20T15:20:42;97929.69;;;10.18;79.89
18850;BME280;4989;48.772;9.154;2022-12-20T15:25:45;97943.88;;;10.29;79.20
18850;BME280;4989;48.772;9.154;2022-12-20T15:30:49;97944.19;;;10.11;79.19
18850;BME280;4989;48.772;9.154;2022-12-20T15:35:52;97926.47;;;9.86;81.06
18850;BME280;4989;48.772;9.154;2022-12-20T15:41:02;97950.03;;;9.70;82.04
18850;BME280;4989;48.772;9.154;2022-12-20T15:46:05;97938.47;;;9.66;82.21
18850;BME280;4989;48.772;9.154;2022-12-20T15:51:23;97940.84;;;9.63;82.58
18850;BME280;4989;48.772;9.154;2022-12-20T15:56:28;97942.84;;;9.59;82.39
18850;BME280;4989;48.772;9.154;2022-12-20T16:01:38;97933.88;;;9.62;82.53
18850;BME280;4989;48.772;9.154;2022-12-20T16:06:43;97951.00;;;9.59;82.58
18850;BME280;4989;48.772;9.154;2022-12-20T16:11:46;97943.94;;;9.62;82.38
18850;BME280;4989;48.772;9.154;2022-12-20T16:16:48;97940.47;;;9.61;82.86
18850;BME280;4989;48.772;9.154;2022-12-20T16:21:51;97931.56;;;9.61;82.91
18850;BME280;4989;48.772;9.154;2022-12-20T16:26:53;97938.59;;;9.58;83.23
18850;BME280;4989;48.772;9.154;2022-12-20T16:31:59;97935.56;;;9.56;83.41
18850;BME280;4989;48.772;9.154;2022-12-20T16:37:01;97943.94;;;9.62;83.05
18850;BME280;4989;48.772;9.154;2022-12-20T16:42:16;97941.59;;;9.64;82.25
18850;BME280;4989;48.772;9.154;2022-12-20T16:47:19;97957.25;;;9.76;81.27
18850;BME280;4989;48.772;9.154;2022-12-20T16:52:21;97949.63;;;9.91;80.28
18850;BME280;4989;48.772;9.154;2022-12-20T16:57:24;97947.94;;;9.97;79.27
18850;BME280;4989;48.772;9.154;2022-12-20T17:02:30;97952.53;;;10.00;79.62
18850;BME280;4989;48.772;9.154;2022-12-20T17:07:33;97936.72;;;9.95;79.71
18850;BME280;4989;48.772;9.154;2022-12-20T17:12:43;97944.88;;;9.95;80.30
18850;BME280;4989;48.772;9.154;2022-12-20T17:17:47;97939.44;;;9.95;80.38
18850;BME280;4989;48.772;9.154;2022-12-20T17:22:54;97937.16;;;9.94;80.47
18850;BME280;4989;48.772;9.154;2022-12-20T17:28:10;97938.69;;;9.95;80.10
18850;BME280;4989;48.772;9.154;2022-12-20T17:33:14;97923.50;;;9.97;80.02
18850;BME280;4989;48.772;9.154;2022-12-20T17:38:16;97937.84;;;9.98;79.70
18850;BME280;4989;48.772;9.154;2022-12-20T17:43:19;97910.63;;;10.01;79.25
18850;BME280;4989;48.772;9.154;2022-12-20T17:48:21;97905.41;;;10.11;78.70
18850;BME280;4989;48.772;9.154;2022-12-20T17:53:29;97901.78;;;10.17;77.61
18850;BME280;4989;48.772;9.154;2022-12-20T17:58:31;97872.94;;;10.23;77.62
18850;BME280;4989;48.772;9.154;2022-12-20T18:03:33;97878.78;;;10.22;77.53
18850;BME280;4989;48.772;9.154;2022-12-20T18:08:57;97872.66;;;10.18;77.72
18850;BME280;4989;48.772;9.154;2022-12-20T18:14:00;97873.59;;;10.11;77.97
18850;BME280;4989;48.772;9.154;2022-12-20T18:19:03;97875.69;;;10.03;78.39
18850;BME280;4989;48.772;9.154;2022-12-20T18:24:08;97878.19;;;9.94;79.33
18850;BME280;4989;48.772;9.154;2022-12-20T18:29:11;97894.50;;;9.94;79.08
18850;BME280;4989;48.772;9.154;2022-12-20T18:34:13;97889.94;;;10.07;78.25
18850;BME280;4989;48.772;9.154;2022-12-20T18:39:15;97882.50;;;10.12;78.30
18850;BME280;4989;48.772;9.154;2022-12-20T18:44:18;97876.22;;;10.15;77.93
18850;BME280;4989;48.772;9.154;2022-12-20T18:49:20;97876.50;;;10.20;77.91
18850;BME280;4989;48.772;9.154;2022-12-20T18:54:22;97884.72;;;10.17;78.22
18850;BME280;4989;48.772;9.154;2022-12-20T18:59:24;97887.94;;;10.12;78.05
18850;BME280;4989;48.772;9.154;2022-12-20T19:04:27;97889.44;;;10.13;78.40
18850;BME280;4989;48.772;9.154;2022-12-20T19:09:29;97887.16;;;10.11;78.19
18850;BME280;4989;48.772;9.154;2022-12-20T19:14:31;97884.38;;;10.15;78.07
18850;BME280;4989;48.772;9.154;2022-12-20T19:19:34;97886.34;;;10.14;78.51
18850;BME280;4989;48.772;9.154;2022-12-20T19:24:36;97882.50;;;10.12;78.50
18850;BME280;4989;48.772;9.154;2022-12-20T19:29:38;97879.78;;;10.12;78.46
18850;BME280;4989;48.772;9.154;2022-12-20T19:34:40;97873.88;;;10.17;78.25
18850;BME280;4989;48.772;9.154;2022-12-20T19:39:42;97874.91;;;10.23;78.06
18850;BME280;4989;48.772;9.154;2022-12-20T19:44:44;97876.34;;;10.27;77.76
18850;BME280;4989;48.772;9.154;2022-12-20T19:49:47;97859.13;;;10.34;77.68
18850;BME280;4989;48.772;9.154;2022-12-20T19:54:59;97841.50;;;10.42;77.32
18850;BME280;4989;48.772;9.154;2022-12-20T20:00:02;97846.84;;;10.46;77.13
18850;BME280;4989;48.772;9.154;2022-12-20T20:05:12;97841.31;;;10.49;77.12
18850;BME280;4989;48.772;9.154;2022-12-20T20:10:16;97841.06;;;10.44;77.08
18850;BME280;4989;48.772;9.154;2022-12-20T20:15:19;97837.56;;;10.43;77.67
18850;BME280;4989;48.772;9.154;2022-12-20T20:20:21;97842.94;;;10.47;77.43
18850;BME280;4989;48.772;9.154;2022-12-20T20:25:23;97860.88;;;10.44;78.09
18850;BME280;4989;48.772;9.154;2022-12-20T20:30:25;97865.84;;;10.29;80.99
18850;BME280;4989;48.772;9.154;2022-12-20T20:35:28;97871.38;;;10.22;83.17
18850;BME280;4989;48.772;9.154;2022-12-20T20:40:31;97885.75;;;10.23;84.78
18850;BME280;4989;48.772;9.154;2022-12-20T20:45:34;97897.47;;;10.20;86.45
18850;BME280;4989;48.772;9.154;2022-12-20T20:50:36;97903.47;;;10.11;87.40
18850;BME280;4989;48.772;9.154;2022-12-20T20:55:40;97907.97;;;10.18;86.99
18850;BME280;4989;48.772;9.154;2022-12-20T21:00:42;97908.47;;;10.32;87.84
18850;BME280;4989;48.772;9.154;2022-12-20T21:05:44;97927.81;;;10.35;87.82
18850;BME280;4989;48.772;9.154;2022-12-20T21:11:07;97921.78;;;10.27;87.62
18850;BME280;4989;48.772;9.154;2022-12-20T21:16:16;97919.53;;;10.22;88.20
18850;BME280;4989;48.772;9.154;2022-12-20T21:21:23;97931.16;;;10.22;86.86
18850;BME280;4989;48.772;9.154;2022-12-20T21:26:26;97926.00;;;10.28;86.59
18850;BME280;4989;48.772;9.154;2022-12-20T21:31:29;97898.38;;;10.33;86.42
18850;BME280;4989;48.772;9.154;2022-12-20T21:36:32;97909.22;;;10.33;88.19
18850;BME280;4989;48.772;9.154;2022-12-20T21:41:34;97899.47;;;10.16;89.82
18850;BME280;4989;48.772;9.154;2022-12-20T21:46:37;97889.63;;;10.05;90.64
18850;BME280;4989;48.772;9.154;2022-12-20T21:51:39;97883.81;;;10.03;90.48
18850;BME280;4989;48.772;9.154;2022-12-20T21:56:41;97885.44;;;10.01;90.28
18850;BME280;4989;48.772;9.154;2022-12-20T22:01:43;97878.47;;;10.00;91.17
18850;BME280;4989;48.772;9.154;2022-12-20T22:06:48;97888.28;;;9.94;89.91
18850;BME280;4989;48.772;9.154;2022-12-20T22:11:50;97890.13;;;9.80;90.44
18850;BME280;4989;48.772;9.154;2022-12-20T22:16:52;97904.25;;;9.72;90.67
18850;BME280;4989;48.772;9.154;2022-12-20T22:21:56;97898.09;;;9.68;90.08
18850;BME280;4989;48.772;9.154;2022-12-20T22:26:59;97905.19;;;9.61;89.79
18850;BME280;4989;48.772;9.154;2022-12-20T22:32:10;97905.56;;;9.63;89.75
18850;BME280;4989;48.772;9.154;2022-12-20T22:37:12;97898.25;;;9.60;89.76
18850;BME280;4989;48.772;9.154;2022-12-20T22:42:14;97900.22;;;9.60;89.20
18850;BME280;4989;48.772;9.154;2022-12-20T22:47:16;97902.50;;;9.61;88.26
18850;BME280;4989;48.772;9.154;2022-12-20T22:52:19;97903.06;;;9.73;87.66
18850;BME280;4989;48.772;9.154;2022-12-20T22:57:22;97910.38;;;9.76;87.23
18850;BME280;4989;48.772;9.154;2022-12-20T23:02:25;97895.47;;;9.84;86.91
18850;BME280;4989;48.772;9.154;2022-12-20T23:07:28;97897.63;;;9.93;85.75
18850;BME280;4989;48.772;9.154;2022-12-20T23:12:31;97883.63;;;9.94;85.91
18850;BME280;4989;48.772;9.154;2022-12-20T23:17:51;97883.63;;;9.94;85.80
18850;BME280;4989;48.772;9.154;2022-12-20T23:22:54;97874.38;;;9.92;86.03
18850;BME280;4989;48.772;9.154;2022-12-20T23:27:57;97877.53;;;9.90;85.56
18850;BME280;4989;48.772;9.154;2022-12-20T23:33:00;97871.38;;;9.86;86.63
18850;BME280;4989;48.772;9.154;2022-12-20T23:38:02;97868.25;;;9.88;86.69
18850;BME280;4989;48.772;9.154;2022-12-20T23:43:05;97865.06;;;9.93;87.32
18850;BME280;4989;48.772;9.154;2022-12-20T23:48:07;97868.09;;;9.95;87.74
18850;BME280;4989;48.772;9.154;2022-12-20T23:53:09;97870.94;;;10.07;86.65
18850;BME280;4989;48.772;9.154;2022-12-20T23:58:11;97868.38;;;10.00;89.01
